Time;durP1;ratioP1;P1;durP2;ratioP2;P2;SDS_P1;SDS_P2;PMS_P1;PMS_P2;Temp;Humidity;BMP_temperature;BMP_pressure;BME280_temperature;BME280_humidity;BME280_pressure;Samples;Min_cycle;Max_cycle;Signal;HPM_P1;HPM_P2
2023/05/03 00:02:20;;;;;;;1.25;0.75;;;10.00;60.10;;;;;;5049013;28;20082;-85
2023/05/03 00:04:47;;;;;;;2.72;0.40;;;10.00;60.10;;;;;;5021983;28;20017;-86
2023/05/03 00:07:13;;;;;;;1.75;0.30;;;10.00;60.30;;;;;;5033174;28;20025;-91
2023/05/03 00:09:39;;;;;;;0.55;0.40;;;10.00;60.20;;;;;;5019522;28;20115;-91
2023/05/03 00:12:05;;;;;;;20.77;0.75;;;10.00;60.20;;;;;;5035617;28;20087;-93
2023/05/03 00:14:31;;;;;;;0.30;0.30;;;10.00;60.20;;;;;;5035966;28;20017;-92
2023/05/03 00:16:56;;;;;;;0.75;0.60;;;10.00;60.40;;;;;;5035939;28;20025;-92
2023/05/03 00:19:25;;;;;;;0.40;0.40;;;9.90;60.30;;;;;;5028366;28;20032;-85
2023/05/03 00:21:51;;;;;;;1.85;0.40;;;9.90;60.20;;;;;;5005227;28;20032;-84
2023/05/03 00:24:17;;;;;;;1.38;0.40;;;9.90;60.30;;;;;;5032965;28;20033;-85
2023/05/03 00:26:43;;;;;;;0.45;0.25;;;9.90;60.40;;;;;;5016050;28;20069;-92
2023/05/03 00:29:08;;;;;;;0.80;0.40;;;9.80;60.40;;;;;;5040336;28;20491;-91
2023/05/03 00:31:34;;;;;;;1.38;0.70;;;9.80;60.50;;;;;;5029140;28;20021;-91
2023/05/03 00:34:00;;;;;;;0.57;0.30;;;9.80;60.70;;;;;;5017132;28;20025;-85
2023/05/03 00:36:26;;;;;;;0.95;0.43;;;9.70;60.70;;;;;;5017326;28;20021;-85
2023/05/03 00:38:52;;;;;;;0.63;0.52;;;9.70;60.90;;;;;;5047725;28;20068;-85
2023/05/03 00:41:18;;;;;;;2.50;0.52;;;9.70;61.00;;;;;;5034963;28;20029;-92
2023/05/03 00:43:43;;;;;;;0.50;0.50;;;9.60;61.10;;;;;;5031623;28;20430;-92
2023/05/03 00:46:10;;;;;;;1.00;0.50;;;9.60;61.10;;;;;;5035631;28;20384;-92
2023/05/03 00:48:36;;;;;;;0.90;0.43;;;9.50;61.20;;;;;;5033809;28;20472;-92
2023/05/03 00:51:04;;;;;;;1.33;0.50;;;9.60;61.50;;;;;;5018543;28;20044;-92
2023/05/03 00:53:30;;;;;;;0.40;0.40;;;9.50;61.60;;;;;;5035266;28;20106;-92
2023/05/03 00:55:59;;;;;;;0.68;0.60;;;9.40;61.60;;;;;;5035011;28;20096;-91
2023/05/03 00:58:24;;;;;;;1.85;0.40;;;9.40;61.70;;;;;;5036062;28;20067;-91
2023/05/03 01:00:50;;;;;;;6.03;1.13;;;9.40;61.90;;;;;;5034018;28;20487;-86
2023/05/03 01:03:16;;;;;;;0.40;0.40;;;9.40;62.00;;;;;;5026871;28;20392;-86
2023/05/03 01:05:52;;;;;;;0.70;0.50;;;9.30;62.20;;;;;;5062994;28;20064;-85
2023/05/03 01:08:36;;;;;;;1.77;0.68;;;9.30;62.30;;;;;;5053358;28;20104;-91
2023/05/03 01:11:22;;;;;;;0.85;0.73;;;9.20;62.30;;;;;;5050125;28;20136;-92
2023/05/03 01:13:59;;;;;;;1.60;0.63;;;9.20;62.40;;;;;;5035077;28;20017;-85
2023/05/03 01:16:39;;;;;;;0.43;0.43;;;9.20;62.50;;;;;;5032471;28;20065;-92
2023/05/03 01:19:14;;;;;;;1.38;0.57;;;9.20;62.50;;;;;;5034059;28;20092;-91
2023/05/03 01:21:46;;;;;;;0.60;0.60;;;9.20;62.60;;;;;;5052280;28;20025;-91
2023/05/03 01:24:20;;;;;;;0.55;0.40;;;9.10;62.70;;;;;;5041727;28;20025;-91
2023/05/03 01:26:46;;;;;;;0.38;0.38;;;9.10;62.70;;;;;;5030849;28;20120;-85
2023/05/03 01:29:13;;;;;;;1.52;0.57;;;9.10;62.80;;;;;;5036372;28;20060;-91
2023/05/03 01:31:48;;;;;;;2.65;0.77;;;9.10;62.90;;;;;;5011983;28;20025;-91
2023/05/03 01:34:32;;;;;;;0.90;0.60;;;9.10;62.90;;;;;;5054557;28;20041;-92
2023/05/03 01:37:01;;;;;;;1.13;0.60;;;9.00;62.90;;;;;;5049238;28;20067;-91
2023/05/03 01:39:47;;;;;;;2.28;0.47;;;8.90;63.00;;;;;;5056794;28;20037;-92
2023/05/03 01:42:14;;;;;;;2.30;1.13;;;9.00;63.00;;;;;;5047060;28;20039;-92
2023/05/03 01:44:42;;;;;;;0.50;0.40;;;8.90;63.30;;;;;;5016343;28;20516;-85
2023/05/03 01:47:09;;;;;;;0.30;0.30;;;8.90;63.30;;;;;;5025121;28;20037;-85
2023/05/03 01:49:35;;;;;;;0.80;0.65;;;8.90;63.50;;;;;;5032327;28;20120;-85
2023/05/03 01:52:00;;;;;;;2.15;0.43;;;8.80;63.60;;;;;;5020256;28;20460;-85
2023/05/03 01:54:26;;;;;;;1.38;0.50;;;8.80;63.60;;;;;;5032503;28;20155;-85
2023/05/03 01:56:52;;;;;;;0.88;0.63;;;8.80;63.50;;;;;;5031466;28;20041;-85
2023/05/03 01:59:17;;;;;;;1.13;0.80;;;8.80;63.70;;;;;;5015281;28;20029;-85
2023/05/03 02:01:43;;;;;;;2.03;0.73;;;8.70;63.80;;;;;;5018717;28;20028;-85
2023/05/03 02:04:09;;;;;;;1.85;0.65;;;8.70;63.90;;;;;;5030568;28;20123;-85
2023/05/03 02:06:35;;;;;;;0.50;0.40;;;8.70;63.90;;;;;;5035156;28;20025;-85
2023/05/03 02:09:01;;;;;;;3.08;0.70;;;8.70;64.10;;;;;;5018682;28;20031;-85
2023/05/03 02:11:27;;;;;;;0.50;0.30;;;8.70;64.10;;;;;;5052604;28;20440;-85
2023/05/03 02:13:53;;;;;;;0.77;0.70;;;8.70;64.30;;;;;;5018155;28;20432;-85
2023/05/03 02:16:18;;;;;;;2.58;0.40;;;8.70;64.30;;;;;;5035339;28;20484;-85
2023/05/03 02:18:44;;;;;;;1.55;0.50;;;8.70;64.30;;;;;;5020177;28;20124;-85
2023/05/03 02:21:10;;;;;;;0.60;0.47;;;8.60;64.20;;;;;;5018463;28;20029;-86
2023/05/03 02:23:36;;;;;;;1.77;0.30;;;8.60;64.20;;;;;;5034637;28;20021;-85
2023/05/03 02:26:02;;;;;;;2.63;0.50;;;8.60;64.20;;;;;;5025929;28;20123;-85
2023/05/03 02:28:30;;;;;;;0.98;0.50;;;8.60;64.90;;;;;;5052854;28;20123;-92
2023/05/03 02:30:56;;;;;;;1.48;0.73;;;8.60;64.20;;;;;;5016916;28;20483;-92
2023/05/03 02:33:22;;;;;;;0.90;0.75;;;8.60;64.30;;;;;;5019722;28;20040;-90
2023/05/03 02:35:48;;;;;;;0.85;0.50;;;8.60;64.40;;;;;;5014645;28;20105;-92
2023/05/03 02:38:13;;;;;;;2.67;0.70;;;8.50;64.30;;;;;;5028573;28;20028;-92
2023/05/03 02:40:39;;;;;;;0.47;0.47;;;8.50;64.40;;;;;;5055036;28;20028;-92
2023/05/03 02:43:05;;;;;;;0.50;0.30;;;8.50;64.50;;;;;;5036252;28;20074;-92
2023/05/03 02:45:31;;;;;;;0.40;0.40;;;8.50;64.50;;;;;;5037208;28;20029;-91
2023/05/03 02:47:57;;;;;;;0.85;0.68;;;8.40;64.60;;;;;;5019986;28;20403;-92
2023/05/03 02:50:23;;;;;;;3.72;0.60;;;8.40;64.50;;;;;;5036779;28;20500;-92
2023/05/03 02:52:49;;;;;;;1.27;0.60;;;8.40;64.60;;;;;;5035862;28;20064;-92
2023/05/03 02:55:15;;;;;;;0.52;0.50;;;8.40;64.70;;;;;;5053136;28;20017;-92
2023/05/03 02:57:41;;;;;;;0.55;0.52;;;8.40;64.80;;;;;;5039135;28;20025;-91
2023/05/03 03:00:09;;;;;;;2.25;0.80;;;8.30;64.80;;;;;;5024929;28;20055;-91
2023/05/03 03:02:35;;;;;;;0.75;0.55;;;8.30;64.90;;;;;;5035096;28;20032;-91
2023/05/03 03:05:01;;;;;;;0.30;0.20;;;8.30;65.00;;;;;;5015625;28;20463;-84
2023/05/03 03:07:26;;;;;;;2.65;0.68;;;8.20;65.00;;;;;;5029307;28;20392;-85
2023/05/03 03:09:52;;;;;;;0.57;0.50;;;8.20;65.20;;;;;;5018376;28;20032;-85
2023/05/03 03:12:18;;;;;;;0.45;0.45;;;8.20;65.30;;;;;;5031153;28;20052;-85
2023/05/03 03:14:44;;;;;;;1.10;0.38;;;8.10;65.20;;;;;;5046202;28;20128;-85
2023/05/03 03:17:11;;;;;;;1.20;0.60;;;8.10;65.20;;;;;;5034102;28;20024;-85
2023/05/03 03:19:36;;;;;;;0.52;0.52;;;8.10;65.10;;;;;;5034307;28;20021;-85
2023/05/03 03:22:02;;;;;;;5.07;0.65;;;8.10;65.10;;;;;;5031819;28;20037;-85
2023/05/03 03:24:28;;;;;;;0.45;0.45;;;8.10;65.00;;;;;;5035130;28;20025;-92
2023/05/03 03:26:53;;;;;;;1.02;0.73;;;8.10;65.00;;;;;;5017066;28;20484;-92
2023/05/03 03:29:19;;;;;;;1.05;0.73;;;8.10;65.00;;;;;;5033619;28;20098;-92
2023/05/03 03:31:45;;;;;;;1.38;0.80;;;8.10;65.00;;;;;;5052337;28;20029;-93
2023/05/03 03:34:14;;;;;;;0.43;0.32;;;8.20;65.10;;;;;;5019942;28;20025;-92
2023/05/03 03:36:39;;;;;;;4.47;0.60;;;8.20;65.00;;;;;;5053865;28;20105;-92
2023/05/03 03:39:06;;;;;;;2.55;0.70;;;8.10;64.90;;;;;;5021619;28;20547;-92
2023/05/03 03:41:32;;;;;;;1.33;0.40;;;8.10;64.90;;;;;;5070368;28;20029;-91
2023/05/03 03:43:58;;;;;;;0.43;0.43;;;8.10;65.00;;;;;;5027329;28;20056;-91
2023/05/03 03:46:23;;;;;;;2.95;0.75;;;8.10;65.00;;;;;;5019401;28;20052;-91
2023/05/03 03:48:49;;;;;;;3.65;0.80;;;8.00;65.00;;;;;;5020879;28;20134;-92
2023/05/03 03:51:15;;;;;;;0.47;0.28;;;8.00;65.10;;;;;;5035574;28;20021;-92
2023/05/03 03:53:41;;;;;;;0.75;0.45;;;8.00;65.10;;;;;;5018195;28;20165;-91
2023/05/03 03:56:07;;;;;;;0.85;0.40;;;8.00;65.10;;;;;;5036689;28;20032;-91
2023/05/03 03:58:33;;;;;;;1.35;0.90;;;8.00;65.30;;;;;;5016758;28;20496;-91
2023/05/03 04:00:59;;;;;;;1.42;0.63;;;8.00;65.40;;;;;;5067921;28;20028;-92
2023/05/03 04:03:25;;;;;;;1.05;0.82;;;7.90;65.50;;;;;;5035631;28;20025;-92
2023/05/03 04:05:51;;;;;;;4.25;1.10;;;7.90;65.60;;;;;;5029932;28;20052;-85
2023/05/03 04:08:17;;;;;;;0.63;0.28;;;7.90;65.80;;;;;;5033307;28;20028;-85
2023/05/03 04:10:43;;;;;;;0.65;0.65;;;7.90;65.80;;;;;;5032664;28;20116;-85
2023/05/03 04:13:08;;;;;;;0.82;0.52;;;7.90;65.90;;;;;;5059045;28;20112;-85
2023/05/03 04:15:34;;;;;;;0.57;0.57;;;7.90;65.80;;;;;;5016126;28;20044;-85
2023/05/03 04:18:00;;;;;;;1.27;1.00;;;7.90;65.90;;;;;;5026684;28;20025;-85
2023/05/03 04:20:25;;;;;;;1.25;0.77;;;7.90;66.00;;;;;;5017646;28;20021;-85
2023/05/03 04:22:51;;;;;;;2.00;0.55;;;7.90;66.00;;;;;;5047826;28;20032;-92
2023/05/03 04:25:17;;;;;;;0.30;0.30;;;7.90;66.00;;;;;;5037608;28;20074;-91
2023/05/03 04:27:44;;;;;;;0.90;0.35;;;7.90;66.00;;;;;;5035867;28;20060;-84
2023/05/03 04:30:12;;;;;;;0.55;0.52;;;7.90;66.20;;;;;;5017174;28;20021;-85
2023/05/03 04:32:39;;;;;;;1.83;0.70;;;7.80;66.20;;;;;;5020052;28;20033;-85
2023/05/03 04:35:09;;;;;;;2.35;0.50;;;7.80;66.30;;;;;;5017590;28;20025;-84
2023/05/03 04:37:36;;;;;;;1.25;0.55;;;7.90;66.40;;;;;;5051824;28;20049;-85
2023/05/03 04:40:06;;;;;;;1.33;1.00;;;7.80;66.50;;;;;;5035771;28;20029;-84
2023/05/03 04:42:32;;;;;;;0.90;0.75;;;7.90;66.60;;;;;;5034508;28;20033;-84
2023/05/03 04:44:57;;;;;;;0.50;0.50;;;7.90;66.80;;;;;;5039851;28;20453;-84
2023/05/03 04:47:24;;;;;;;0.70;0.68;;;7.90;66.80;;;;;;5022224;28;20033;-84
2023/05/03 04:49:50;;;;;;;9.20;0.70;;;7.90;66.80;;;;;;5033210;28;20507;-85
2023/05/03 04:52:16;;;;;;;1.60;0.82;;;7.90;66.80;;;;;;5025351;28;20111;-85
2023/05/03 04:54:41;;;;;;;0.45;0.45;;;8.00;66.80;;;;;;5036430;28;20155;-85
2023/05/03 04:57:09;;;;;;;0.60;0.60;;;8.00;66.80;;;;;;5014468;28;20036;-85
2023/05/03 04:59:35;;;;;;;1.15;0.60;;;8.00;66.70;;;;;;5033532;28;20434;-85
2023/05/03 05:02:01;;;;;;;0.93;0.65;;;8.10;66.90;;;;;;5018581;28;20034;-85
2023/05/03 05:04:26;;;;;;;5.72;0.75;;;8.10;66.90;;;;;;5022077;28;20028;-85
2023/05/03 05:06:53;;;;;;;1.00;0.82;;;8.20;66.80;;;;;;5053531;28;20630;-85
2023/05/03 05:09:27;;;;;;;0.60;0.60;;;8.20;66.80;;;;;;5051232;28;20040;-90
2023/05/03 05:11:53;;;;;;;0.57;0.57;;;8.30;66.90;;;;;;5036026;28;20024;-85
2023/05/03 05:14:22;;;;;;;1.27;0.82;;;8.40;66.80;;;;;;5030877;28;20043;-85
2023/05/03 05:16:47;;;;;;;0.43;0.43;;;8.40;66.70;;;;;;5015768;28;20059;-85
2023/05/03 05:19:13;;;;;;;1.48;0.65;;;8.50;67.30;;;;;;5014973;28;20044;-85
2023/05/03 05:21:39;;;;;;;1.10;0.63;;;8.50;66.60;;;;;;5028982;28;20035;-85
2023/05/03 05:24:05;;;;;;;1.17;0.68;;;8.60;66.60;;;;;;5015787;28;20480;-85
2023/05/03 05:26:31;;;;;;;2.15;0.77;;;8.60;66.50;;;;;;5019429;28;20049;-91
2023/05/03 05:28:57;;;;;;;0.63;0.35;;;8.70;66.50;;;;;;5051719;28;20025;-91
2023/05/03 05:31:23;;;;;;;0.90;0.57;;;8.80;66.40;;;;;;5031031;28;20123;-85
2023/05/03 05:33:49;;;;;;;2.65;0.98;;;8.80;66.30;;;;;;5015957;28;20033;-85
2023/05/03 05:36:21;;;;;;;3.60;0.30;;;8.90;66.30;;;;;;5048109;28;20029;-85
2023/05/03 05:38:47;;;;;;;;;;;9.00;66.20;;;;;;5013922;28;20029;-85
2023/05/03 05:41:13;;;;;;;0.95;0.35;;;9.00;66.10;;;;;;5046202;28;19909;-85
2023/05/03 05:43:38;;;;;;;1.13;0.75;;;9.10;66.00;;;;;;5059915;28;20032;-85
2023/05/03 05:46:04;;;;;;;3.08;0.82;;;9.10;65.80;;;;;;5014543;28;20079;-85
2023/05/03 05:48:30;;;;;;;0.50;0.50;;;9.20;65.80;;;;;;4995855;28;20029;-85
2023/05/03 05:50:55;;;;;;;0.55;0.55;;;9.30;65.70;;;;;;5018887;28;20095;-85
2023/05/03 05:53:21;;;;;;;0.65;0.40;;;9.30;65.60;;;;;;5034031;28;20374;-92
2023/05/03 05:55:47;;;;;;;4.97;0.85;;;9.40;65.40;;;;;;5053151;28;20021;-92
2023/05/03 05:58:13;;;;;;;1.40;0.68;;;9.50;65.40;;;;;;5014915;28;20018;-91
2023/05/03 06:00:38;;;;;;;3.47;0.70;;;9.50;65.20;;;;;;5026053;28;20523;-92
2023/05/03 06:03:05;;;;;;;0.40;0.40;;;9.60;65.10;;;;;;5033176;28;20029;-93
2023/05/03 06:05:30;;;;;;;0.65;0.60;;;9.60;65.00;;;;;;5033110;28;20033;-92
2023/05/03 06:07:56;;;;;;;0.55;0.55;;;9.70;64.80;;;;;;5021910;28;20098;-90
2023/05/03 06:10:22;;;;;;;0.20;0.20;;;9.70;64.70;;;;;;5014265;28;20041;-91
2023/05/03 06:12:47;;;;;;;0.93;0.40;;;9.80;64.60;;;;;;5033911;28;20028;-91
2023/05/03 06:15:13;;;;;;;0.60;0.57;;;9.90;64.40;;;;;;5014582;28;20053;-91
2023/05/03 06:17:39;;;;;;;0.82;0.60;;;9.90;64.30;;;;;;5040183;28;20024;-91
2023/05/03 06:20:05;;;;;;;0.63;0.52;;;10.00;64.20;;;;;;5020941;28;20020;-91
2023/05/03 06:22:34;;;;;;;0.52;0.50;;;10.00;63.90;;;;;;5023290;28;20032;-92
2023/05/03 06:25:00;;;;;;;2.00;0.35;;;10.10;63.70;;;;;;5003164;28;20025;-92
2023/05/03 06:27:25;;;;;;;1.45;0.47;;;10.10;63.40;;;;;;4996948;28;20385;-85
2023/05/03 06:29:51;;;;;;;0.68;0.50;;;10.20;63.20;;;;;;5024850;28;20060;-85
2023/05/03 06:32:18;;;;;;;0.35;0.35;;;10.30;62.80;;;;;;5015562;28;20029;-86
2023/05/03 06:34:44;;;;;;;0.38;0.38;;;10.30;62.60;;;;;;5027605;28;20518;-85
2023/05/03 06:37:10;;;;;;;0.93;0.70;;;10.30;62.30;;;;;;5028566;28;20029;-93
2023/05/03 06:39:35;;;;;;;2.40;0.45;;;10.40;62.00;;;;;;5017573;28;20033;-91
2023/05/03 06:42:01;;;;;;;0.88;0.40;;;10.50;61.80;;;;;;5032492;28;20124;-92
2023/05/03 06:44:27;;;;;;;0.50;0.50;;;10.50;61.40;;;;;;5014297;28;20531;-92
2023/05/03 06:47:02;;;;;;;0.40;0.40;;;10.60;61.30;;;;;;5031988;28;20045;-92
2023/05/03 06:49:27;;;;;;;2.15;0.75;;;10.60;61.30;;;;;;5031025;28;20025;-92
2023/05/03 06:51:53;;;;;;;1.67;0.40;;;10.60;61.10;;;;;;5019725;28;20029;-92
2023/05/03 06:54:19;;;;;;;0.40;0.40;;;10.70;61.50;;;;;;5019683;28;20021;-91
2023/05/03 06:56:45;;;;;;;1.27;0.95;;;10.70;60.80;;;;;;5016019;28;20079;-91
2023/05/03 06:59:11;;;;;;;0.73;0.50;;;10.80;60.60;;;;;;5036217;28;20104;-91
2023/05/03 07:01:37;;;;;;;0.13;0.13;;;10.80;60.40;;;;;;5020207;28;20097;-91
2023/05/03 07:04:02;;;;;;;0.57;0.57;;;10.90;60.30;;;;;;5001179;28;20029;-90
2023/05/03 07:06:30;;;;;;;0.55;0.38;;;10.90;60.10;;;;;;5019427;28;20033;-91
2023/05/03 07:08:56;;;;;;;3.67;0.47;;;11.00;60.10;;;;;;5017704;28;20029;-91
2023/05/03 07:11:22;;;;;;;0.60;0.50;;;11.00;60.00;;;;;;5017488;28;20407;-92
2023/05/03 07:13:52;;;;;;;1.05;0.68;;;11.00;59.90;;;;;;5020134;28;20028;-93
2023/05/03 07:16:18;;;;;;;0.45;0.43;;;11.10;59.90;;;;;;5027003;28;20060;-93
2023/05/03 07:18:48;;;;;;;0.30;0.30;;;11.10;59.80;;;;;;5035259;28;20087;-94
2023/05/03 07:21:14;;;;;;;0.35;0.35;;;11.20;59.70;;;;;;5052199;28;20029;-92
2023/05/03 07:23:48;;;;;;;0.60;0.35;;;11.30;59.60;;;;;;5016906;28;20443;-84
2023/05/03 07:26:14;;;;;;;0.75;0.60;;;11.40;59.50;;;;;;5035835;28;20052;-85
2023/05/03 07:28:42;;;;;;;1.38;0.80;;;11.40;59.40;;;;;;5015458;28;20021;-84
2023/05/03 07:31:08;;;;;;;1.08;0.50;;;11.50;59.90;;;;;;5038251;28;20418;-84
2023/05/03 07:33:36;;;;;;;0.73;0.50;;;11.60;59.10;;;;;;5047326;28;20391;-85
2023/05/03 07:36:02;;;;;;;0.95;0.40;;;11.60;58.90;;;;;;5016534;28;20112;-85
2023/05/03 07:38:28;;;;;;;0.60;0.60;;;11.70;58.80;;;;;;5018452;28;20017;-85
2023/05/03 07:40:54;;;;;;;0.50;0.50;;;11.70;58.60;;;;;;5019622;28;20120;-92
2023/05/03 07:43:22;;;;;;;1.35;0.63;;;11.80;58.60;;;;;;5021418;28;20036;-91
2023/05/03 07:45:48;;;;;;;0.75;0.63;;;11.80;58.50;;;;;;5020699;28;20017;-93
2023/05/03 07:48:14;;;;;;;0.98;0.50;;;11.90;58.50;;;;;;5019157;28;20078;-93
2023/05/03 07:50:44;;;;;;;3.88;0.52;;;12.00;58.40;;;;;;5016775;28;20033;-93
2023/05/03 07:53:11;;;;;;;1.17;0.73;;;12.10;58.10;;;;;;5017894;28;20029;-93
2023/05/03 07:55:37;;;;;;;2.50;0.50;;;12.20;58.00;;;;;;5021119;28;20032;-92
2023/05/03 07:58:03;;;;;;;0.45;0.30;;;12.20;57.80;;;;;;5035757;28;20021;-93
2023/05/03 08:00:29;;;;;;;0.90;0.32;;;12.20;57.80;;;;;;5050501;28;20032;-93
2023/05/03 08:02:55;;;;;;;0.47;0.40;;;12.40;57.80;;;;;;5036542;28;20498;-93
2023/05/03 08:05:22;;;;;;;1.33;0.80;;;12.40;57.60;;;;;;5041336;28;20028;-86
2023/05/03 08:07:52;;;;;;;0.40;0.30;;;12.50;57.30;;;;;;5035752;28;20036;-85
2023/05/03 08:10:17;;;;;;;0.52;0.50;;;12.60;57.10;;;;;;5016827;28;20025;-86
2023/05/03 08:12:44;;;;;;;1.17;0.30;;;12.60;56.90;;;;;;5017406;28;20096;-85
2023/05/03 08:15:10;;;;;;;0.50;0.45;;;12.70;56.90;;;;;;5019361;28;20025;-86
2023/05/03 08:17:54;;;;;;;1.33;0.80;;;12.80;56.70;;;;;;5036400;28;20395;-86
2023/05/03 08:20:20;;;;;;;0.82;0.50;;;12.90;56.60;;;;;;5033538;28;20083;-84
2023/05/03 08:22:46;;;;;;;1.17;0.80;;;12.90;56.50;;;;;;5034563;28;20021;-91
2023/05/03 08:25:12;;;;;;;1.05;0.50;;;13.00;56.40;;;;;;5027773;28;20021;-92
2023/05/03 08:27:39;;;;;;;0.32;0.32;;;13.10;56.20;;;;;;5051503;28;20120;-91
2023/05/03 08:30:05;;;;;;;0.95;0.60;;;13.10;56.30;;;;;;5063865;28;20107;-85
2023/05/03 08:32:31;;;;;;;0.65;0.55;;;13.20;56.60;;;;;;5049217;28;20578;-85
2023/05/03 08:34:57;;;;;;;4.00;0.90;;;13.30;55.70;;;;;;5016039;28;20112;-86
2023/05/03 08:37:23;;;;;;;1.30;0.38;;;13.40;55.50;;;;;;5026039;28;20032;-92
2023/05/03 08:39:49;;;;;;;1.00;0.43;;;13.50;55.30;;;;;;5017850;28;20021;-93
2023/05/03 08:42:15;;;;;;;0.68;0.60;;;13.60;55.10;;;;;;5018386;28;20033;-93
2023/05/03 08:44:48;;;;;;;0.90;0.22;;;13.60;55.00;;;;;;5034702;28;20132;-93
2023/05/03 08:47:15;;;;;;;0.80;0.65;;;13.60;54.80;;;;;;5050576;28;20028;-86
2023/05/03 08:49:42;;;;;;;0.95;0.57;;;13.60;54.60;;;;;;5015933;28;20384;-86
2023/05/03 08:52:14;;;;;;;0.65;0.30;;;13.60;54.60;;;;;;5038042;28;20512;-86
2023/05/03 08:54:40;;;;;;;;;;;13.70;54.40;;;;;;5033607;28;20029;-85
2023/05/03 08:57:20;;;;;;;1.75;0.70;;;13.70;54.40;;;;;;5051151;28;19909;-93
2023/05/03 08:59:49;;;;;;;0.60;0.60;;;13.70;54.10;;;;;;5023406;28;20021;-86
2023/05/03 09:02:26;;;;;;;0.60;0.50;;;13.70;53.90;;;;;;5032848;28;20025;-86
2023/05/03 09:04:52;;;;;;;1.20;0.50;;;13.70;54.10;;;;;;5032186;28;20461;-86
2023/05/03 09:07:19;;;;;;;2.15;0.52;;;13.70;53.90;;;;;;5032635;28;20053;-85
2023/05/03 09:09:48;;;;;;;0.40;0.40;;;13.80;53.90;;;;;;5016853;28;20040;-85
2023/05/03 09:12:33;;;;;;;2.15;0.63;;;13.90;53.80;;;;;;5025667;28;20029;-86
2023/05/03 09:15:02;;;;;;;0.95;0.50;;;14.00;53.20;;;;;;5027062;28;20162;-93
2023/05/03 09:17:28;;;;;;;0.65;0.60;;;14.00;53.30;;;;;;5030407;28;20064;-86
2023/05/03 09:19:56;;;;;;;1.05;0.70;;;14.20;53.10;;;;;;5015246;28;20095;-93
2023/05/03 09:22:25;;;;;;;0.40;0.40;;;14.30;52.90;;;;;;5036040;28;20075;-93
2023/05/03 09:24:52;;;;;;;0.57;0.32;;;14.40;52.80;;;;;;5034240;28;20029;-92
2023/05/03 09:27:20;;;;;;;6.97;1.02;;;14.40;52.60;;;;;;5032475;28;20416;-93
2023/05/03 09:29:47;;;;;;;0.77;0.60;;;14.30;52.20;;;;;;5071931;28;20025;-92
2023/05/03 09:32:13;;;;;;;1.63;0.68;;;14.40;52.40;;;;;;5033948;28;20017;-92
2023/05/03 09:34:39;;;;;;;1.52;0.80;;;14.50;52.40;;;;;;5037831;28;20033;-92
2023/05/03 09:37:05;;;;;;;1.40;0.55;;;14.70;52.20;;;;;;5050311;28;20029;-92
2023/05/03 09:39:31;;;;;;;0.20;0.20;;;14.80;52.20;;;;;;5013293;28;20101;-93
2023/05/03 09:41:57;;;;;;;0.50;0.50;;;15.00;52.10;;;;;;5032215;28;20083;-92
2023/05/03 09:44:52;;;;;;;0.30;0.30;;;15.20;51.70;;;;;;5044316;28;20438;-92
2023/05/03 09:47:20;;;;;;;0.70;0.40;;;15.30;51.00;;;;;;5028750;28;20550;-92
2023/05/03 09:49:46;;;;;;;0.60;0.60;;;15.40;51.20;;;;;;5047759;28;20586;-93
2023/05/03 09:52:12;;;;;;;2.90;0.50;;;15.40;51.30;;;;;;5014566;28;20035;-85
2023/05/03 09:54:38;;;;;;;0.38;0.38;;;15.40;50.60;;;;;;5027407;28;20029;-85
2023/05/03 09:57:06;;;;;;;0.65;0.40;;;15.40;50.60;;;;;;5058525;28;20029;-86
2023/05/03 09:59:36;;;;;;;1.10;0.85;;;15.50;50.60;;;;;;5024754;28;20037;-90
2023/05/03 10:02:06;;;;;;;0.85;0.40;;;15.60;50.60;;;;;;5027485;28;20040;-91
2023/05/03 10:04:42;;;;;;;3.30;0.82;;;15.70;50.50;;;;;;5027982;28;20255;-84
2023/05/03 10:07:16;;;;;;;2.60;0.93;;;15.70;49.80;;;;;;5047360;28;20402;-91
2023/05/03 10:09:46;;;;;;;0.57;0.50;;;15.70;49.90;;;;;;5048085;28;20503;-91
2023/05/03 10:12:15;;;;;;;0.40;0.30;;;15.80;49.80;;;;;;5049934;28;20037;-91
2023/05/03 10:14:43;;;;;;;3.60;0.65;;;15.90;49.90;;;;;;5012661;28;20547;-92
2023/05/03 10:17:25;;;;;;;0.52;0.50;;;16.10;49.60;;;;;;5048808;28;20029;-86
2023/05/03 10:19:59;;;;;;;2.85;0.80;;;16.30;49.30;;;;;;5028304;28;20021;-85
2023/05/03 10:22:25;;;;;;;0.40;0.40;;;16.40;49.00;;;;;;5067603;28;20037;-85
2023/05/03 10:25:01;;;;;;;0.43;0.43;;;16.40;48.60;;;;;;5028667;28;20044;-86
2023/05/03 10:27:51;;;;;;;1.17;0.50;;;16.40;48.80;;;;;;5046750;28;20061;-86
2023/05/03 10:30:27;;;;;;;0.57;0.47;;;16.60;48.80;;;;;;5033672;28;20029;-85
2023/05/03 10:32:54;;;;;;;1.92;0.50;;;16.80;48.60;;;;;;5051736;28;20498;-86
2023/05/03 10:35:20;;;;;;;0.50;0.50;;;16.90;48.40;;;;;;5049276;28;20057;-85
2023/05/03 10:37:48;;;;;;;1.33;0.40;;;17.00;48.20;;;;;;5042299;28;20082;-85
2023/05/03 10:40:15;;;;;;;0.38;0.38;;;17.20;47.90;;;;;;5043940;28;20500;-85
2023/05/03 10:42:48;;;;;;;0.40;0.22;;;17.30;47.80;;;;;;5069423;28;20043;-86
2023/05/03 10:45:27;;;;;;;1.65;0.55;;;17.40;47.40;;;;;;5028066;28;20556;-92
2023/05/03 10:48:11;;;;;;;0.50;0.47;;;17.50;47.30;;;;;;5060331;28;20096;-86
2023/05/03 10:50:40;;;;;;;0.82;0.50;;;17.60;47.00;;;;;;5072845;28;20384;-90
2023/05/03 10:53:06;;;;;;;0.30;0.30;;;17.60;46.80;;;;;;5029041;28;20021;-85
2023/05/03 10:55:32;;;;;;;0.30;0.30;;;17.70;47.10;;;;;;5031713;28;20021;-92
2023/05/03 10:57:59;;;;;;;0.50;0.50;;;17.80;46.90;;;;;;5018375;28;20025;-92
2023/05/03 11:00:42;;;;;;;0.40;0.40;;;17.90;45.90;;;;;;5036253;28;20021;-91
2023/05/03 11:03:18;;;;;;;0.93;0.30;;;17.90;46.20;;;;;;5025743;28;20029;-85
2023/05/03 11:05:46;;;;;;;1.05;0.40;;;18.00;46.00;;;;;;5024267;28;20036;-85
2023/05/03 11:08:13;;;;;;;1.25;0.50;;;18.10;46.00;;;;;;5032552;28;20500;-85
2023/05/03 11:10:39;;;;;;;1.55;0.40;;;18.20;46.00;;;;;;5032909;28;20423;-86
2023/05/03 11:13:06;;;;;;;1.10;0.60;;;18.30;45.80;;;;;;5007998;28;20076;-85
2023/05/03 11:15:32;;;;;;;0.57;0.50;;;18.30;45.50;;;;;;5034760;28;20021;-92
2023/05/03 11:17:58;;;;;;;1.02;0.57;;;18.40;45.30;;;;;;5036357;28;20548;-92
2023/05/03 11:20:24;;;;;;;0.65;0.65;;;18.50;45.00;;;;;;5034249;28;20024;-85
2023/05/03 11:22:51;;;;;;;3.65;0.50;;;18.60;44.90;;;;;;5001270;28;20020;-85
2023/05/03 11:25:17;;;;;;;0.73;0.57;;;18.60;44.50;;;;;;5068331;28;20021;-91
2023/05/03 11:27:45;;;;;;;0.45;0.45;;;18.60;44.50;;;;;;5035252;28;20040;-92
2023/05/03 11:30:12;;;;;;;1.00;0.55;;;18.70;44.30;;;;;;5052863;28;20025;-85
2023/05/03 11:32:38;;;;;;;0.40;0.40;;;18.70;44.30;;;;;;5033185;28;20037;-85
2023/05/03 11:35:06;;;;;;;0.52;0.52;;;18.80;44.30;;;;;;5051188;28;20021;-85
2023/05/03 11:37:32;;;;;;;0.40;0.40;;;19.00;44.30;;;;;;5019437;28;20036;-89
2023/05/03 11:39:59;;;;;;;0.82;0.52;;;19.10;43.80;;;;;;5068331;28;20094;-86
2023/05/03 11:42:25;;;;;;;1.73;0.52;;;19.20;43.50;;;;;;5058988;28;20037;-86
2023/05/03 11:44:57;;;;;;;0.38;0.35;;;19.20;43.40;;;;;;5051444;28;20148;-91
2023/05/03 11:47:23;;;;;;;;;;;19.30;43.40;;;;;;5037040;28;20044;-86
2023/05/03 11:49:56;;;;;;;0.73;0.70;;;19.40;43.00;;;;;;5051940;28;20409;-86
2023/05/03 11:52:23;;;;;;;0.57;0.57;;;19.50;42.70;;;;;;5052887;28;20557;-86
2023/05/03 11:54:53;;;;;;;0.57;0.30;;;19.50;42.50;;;;;;5029654;28;20100;-87
2023/05/03 11:57:20;;;;;;;0.40;0.40;;;19.60;42.70;;;;;;5046085;28;20033;-86
2023/05/03 11:59:46;;;;;;;0.60;0.60;;;19.70;42.30;;;;;;5046341;28;20049;-87
2023/05/03 12:02:13;;;;;;;0.32;0.32;;;19.90;42.40;;;;;;5018041;28;20111;-86
2023/05/03 12:04:42;;;;;;;0.52;0.50;;;20.00;42.00;;;;;;5032726;28;20529;-86
2023/05/03 12:07:15;;;;;;;1.10;0.50;;;20.10;41.90;;;;;;5026743;28;20401;-86
2023/05/03 12:09:41;;;;;;;0.60;0.50;;;20.20;41.90;;;;;;5057251;28;20431;-86
2023/05/03 12:12:06;;;;;;;0.35;0.35;;;20.20;41.80;;;;;;5033251;28;20087;-86
2023/05/03 12:14:56;;;;;;;0.50;0.50;;;20.30;41.80;;;;;;5017271;28;20029;-86
2023/05/03 12:17:39;;;;;;;1.17;0.70;;;20.40;41.80;;;;;;5032761;28;20029;-86
2023/05/03 12:20:17;;;;;;;0.30;0.30;;;20.40;41.00;;;;;;5033588;28;20021;-85
2023/05/03 12:22:46;;;;;;;0.40;0.40;;;20.40;41.20;;;;;;5034423;28;20395;-85
2023/05/03 12:25:12;;;;;;;4.57;0.70;;;20.60;41.20;;;;;;5029485;28;20116;-86
2023/05/03 12:27:38;;;;;;;0.90;0.52;;;20.60;40.90;;;;;;5032341;28;20182;-86
2023/05/03 12:30:04;;;;;;;0.88;0.40;;;20.60;40.50;;;;;;5031329;28;20029;-86
2023/05/03 12:32:30;;;;;;;0.57;0.40;;;20.70;40.60;;;;;;5032687;28;20025;-86
2023/05/03 12:34:56;;;;;;;1.60;0.60;;;20.70;40.40;;;;;;5050098;28;20025;-86
2023/05/03 12:37:21;;;;;;;0.30;0.30;;;20.70;40.60;;;;;;5013295;28;20061;-86
2023/05/03 12:39:47;;;;;;;0.63;0.55;;;20.80;40.50;;;;;;5022639;28;20045;-86
2023/05/03 12:42:13;;;;;;;2.92;0.40;;;20.90;40.30;;;;;;5015911;28;20022;-86
2023/05/03 12:44:39;;;;;;;1.05;0.50;;;20.90;40.20;;;;;;5029408;28;20037;-86
2023/05/03 12:47:05;;;;;;;0.65;0.43;;;21.10;40.20;;;;;;5032159;28;20029;-87
2023/05/03 12:49:31;;;;;;;0.32;0.32;;;21.20;40.20;;;;;;5031745;28;20559;-87
2023/05/03 12:51:59;;;;;;;2.10;0.98;;;21.30;40.40;;;;;;5018710;28;20395;-93
2023/05/03 12:54:25;;;;;;;1.17;0.50;;;21.50;39.60;;;;;;5018612;28;20653;-93
2023/05/03 12:56:51;;;;;;;0.40;0.40;;;21.60;39.10;;;;;;5001670;28;20049;-92